Time;durP1;ratioP1;P1;durP2;ratioP2;P2;SDS_P1;SDS_P2;PMS_P1;PMS_P2;Temp;Humidity;BMP_temperature;BMP_pressure;BME280_temperature;BME280_humidity;BME280_pressure;Samples;Min_cycle;Max_cycle;Signal;HPM_P1;HPM_P2
2022/02/24 00:01:00;;;;;;;9.60;4.10;;;;;;;;;;4449505;32;20243;-56
2022/02/24 00:03:26;;;;;;;21.73;6.53;;;;;;;;;;4449430;32;20193;-55
2022/02/24 00:05:53;;;;;;;16.20;7.13;;;;;;;;;;4449324;32;20299;-56
2022/02/24 00:08:18;;;;;;;7.53;4.97;;;;;;;;;;4449300;32;20241;-56
2022/02/24 00:10:44;;;;;;;11.03;5.03;;;;;;;;;;4449476;32;20234;-56
2022/02/24 00:13:09;;;;;;;7.77;4.13;;;;;;;;;;4449262;32;20490;-56
2022/02/24 00:15:35;;;;;;;9.53;4.77;;;;;;;;;;4435205;32;20232;-55
2022/02/24 00:18:01;;;;;;;11.03;3.30;;;;;;;;;;4449329;32;20628;-56
2022/02/24 00:20:26;;;;;;;7.53;4.13;;;;;;;;;;4449239;32;20640;-55
2022/02/24 00:22:52;;;;;;;9.00;3.37;;;;;;;;;;4448975;32;20333;-56
2022/02/24 00:25:17;;;;;;;6.77;3.77;;;;;;;;;;4449178;32;20352;-57
2022/02/24 00:27:43;;;;;;;8.10;3.70;;;;;;;;;;4439071;32;20276;-56
2022/02/24 00:30:09;;;;;;;10.63;3.57;;;;;;;;;;4444362;32;20256;-56
2022/02/24 00:32:34;;;;;;;8.57;4.37;;;;;;;;;;4448684;32;20318;-56
2022/02/24 00:35:00;;;;;;;7.50;3.40;;;;;;;;;;4447720;32;20682;-56
2022/02/24 00:37:25;;;;;;;8.03;4.13;;;;;;;;;;4433464;32;20185;-57
2022/02/24 00:39:51;;;;;;;5.10;2.60;;;;;;;;;;4427586;32;20338;-57
2022/02/24 00:42:16;;;;;;;6.30;3.73;;;;;;;;;;4434986;32;20323;-56
2022/02/24 00:44:42;;;;;;;5.37;2.73;;;;;;;;;;4440362;32;20541;-56
2022/02/24 00:47:07;;;;;;;7.27;3.97;;;;;;;;;;4432803;32;20189;-55
2022/02/24 00:49:33;;;;;;;7.73;4.20;;;;;;;;;;4419308;32;20224;-55
2022/02/24 00:51:59;;;;;;;14.23;4.20;;;;;;;;;;4433400;32;20231;-56
2022/02/24 00:54:25;;;;;;;14.23;4.60;;;;;;;;;;4433111;32;20310;-56
2022/02/24 00:56:51;;;;;;;8.57;4.10;;;;;;;;;;4433410;32;20205;-56
2022/02/24 00:59:16;;;;;;;7.50;3.23;;;;;;;;;;4419350;32;20751;-57
2022/02/24 01:01:42;;;;;;;8.53;3.87;;;;;;;;;;4424080;32;20665;-56
2022/02/24 01:04:08;;;;;;;7.77;3.90;;;;;;;;;;4419023;32;20398;-56
2022/02/24 01:06:33;;;;;;;7.03;3.87;;;;;;;;;;4432740;32;20237;-56
2022/02/24 01:08:59;;;;;;;14.93;4.23;;;;;;;;;;4433282;32;20336;-56
2022/02/24 01:11:24;;;;;;;9.23;4.30;;;;;;;;;;4431876;32;20255;-56
2022/02/24 01:13:50;;;;;;;8.60;4.43;;;;;;;;;;4419018;32;20853;-55
2022/02/24 01:16:15;;;;;;;10.27;4.27;;;;;;;;;;4432916;32;20631;-56
2022/02/24 01:18:41;;;;;;;8.43;4.43;;;;;;;;;;4418945;32;20316;-56
2022/02/24 01:21:06;;;;;;;12.63;5.23;;;;;;;;;;4446083;32;20267;-55
2022/02/24 01:23:32;;;;;;;9.07;4.73;;;;;;;;;;4448096;32;20303;-55
2022/02/24 01:25:57;;;;;;;8.77;4.17;;;;;;;;;;4434292;32;20288;-56
2022/02/24 01:28:23;;;;;;;9.37;4.00;;;;;;;;;;4448126;32;20246;-56
2022/02/24 01:30:48;;;;;;;19.93;6.97;;;;;;;;;;4448448;32;20216;-56
2022/02/24 01:33:14;;;;;;;11.83;6.90;;;;;;;;;;4447881;32;20541;-55
2022/02/24 01:35:39;;;;;;;13.60;5.37;;;;;;;;;;4440516;32;20260;-55
2022/02/24 01:38:05;;;;;;;8.17;5.00;;;;;;;;;;4432923;32;20181;-57
2022/02/24 01:40:30;;;;;;;13.03;7.13;;;;;;;;;;4444509;32;20339;-56
2022/02/24 01:42:56;;;;;;;14.43;6.13;;;;;;;;;;4448396;32;20232;-56
2022/02/24 01:45:21;;;;;;;21.30;8.33;;;;;;;;;;4448335;32;20296;-56
2022/02/24 01:47:47;;;;;;;22.07;9.80;;;;;;;;;;4447859;32;20241;-57
2022/02/24 01:50:13;;;;;;;14.33;8.47;;;;;;;;;;4448031;32;20605;-56
2022/02/24 01:52:40;;;;;;;18.03;6.40;;;;;;;;;;4447711;32;20285;-57
2022/02/24 01:55:07;;;;;;;8.77;5.37;;;;;;;;;;4433954;32;20721;-57
2022/02/24 01:57:33;;;;;;;16.73;5.80;;;;;;;;;;4446881;32;20799;-56
2022/02/24 01:59:58;;;;;;;12.57;4.60;;;;;;;;;;4447913;32;20212;-56
2022/02/24 02:02:24;;;;;;;13.17;6.30;;;;;;;;;;4447695;32;20219;-57
2022/02/24 02:04:50;;;;;;;16.47;6.53;;;;;;;;;;4447699;32;20228;-56
2022/02/24 02:07:16;;;;;;;7.37;3.90;;;;;;;;;;4447555;32;20196;-58
2022/02/24 02:09:42;;;;;;;8.07;3.90;;;;;;;;;;4447573;32;20231;-55
2022/02/24 02:12:08;;;;;;;11.27;4.60;;;;;;;;;;4433697;32;20710;-56
2022/02/24 02:14:36;;;;;;;12.20;4.10;;;;;;;;;;4433108;32;20555;-57
2022/02/24 02:17:02;;;;;;;12.50;4.43;;;;;;;;;;4447569;32;20387;-56
2022/02/24 02:19:30;;;;;;;16.20;7.67;;;;;;;;;;4432923;32;20334;-56
2022/02/24 02:21:56;;;;;;;12.27;6.13;;;;;;;;;;4447631;32;20196;-57
2022/02/24 02:24:23;;;;;;;14.37;6.00;;;;;;;;;;4447310;32;20306;-56
2022/02/24 02:26:49;;;;;;;16.80;7.00;;;;;;;;;;4447388;32;20278;-56
2022/02/24 02:29:16;;;;;;;10.67;6.23;;;;;;;;;;4433443;32;20326;-56
2022/02/24 02:31:43;;;;;;;20.20;8.43;;;;;;;;;;4446784;32;20220;-56
2022/02/24 02:34:16;;;;;;;28.10;11.43;;;;;;;;;;4447070;32;20244;-56
2022/02/24 02:36:45;;;;;;;15.47;8.20;;;;;;;;;;4419352;32;20571;-57
2022/02/24 02:39:11;;;;;;;12.90;8.60;;;;;;;;;;4421616;32;20242;-57
2022/02/24 02:41:37;;;;;;;23.70;11.13;;;;;;;;;;4446929;32;20221;-57
2022/02/24 02:44:04;;;;;;;20.53;10.20;;;;;;;;;;4447379;32;20200;-56
2022/02/24 02:46:30;;;;;;;23.63;10.80;;;;;;;;;;4447255;32;20251;-56
2022/02/24 02:48:56;;;;;;;17.63;9.17;;;;;;;;;;4447293;32;20528;-57
2022/02/24 02:51:21;;;;;;;13.27;5.83;;;;;;;;;;4447086;32;20296;-56
2022/02/24 02:53:47;;;;;;;10.50;5.73;;;;;;;;;;4446984;32;20639;-57
2022/02/24 02:56:13;;;;;;;25.00;10.53;;;;;;;;;;4447336;32;20307;-56
2022/02/24 02:58:38;;;;;;;16.80;8.40;;;;;;;;;;4432738;32;20353;-57
2022/02/24 03:01:04;;;;;;;16.90;6.67;;;;;;;;;;4447365;32;20240;-56
2022/02/24 03:03:30;;;;;;;11.13;6.63;;;;;;;;;;4446645;32;20569;-55
2022/02/24 03:05:56;;;;;;;12.40;6.30;;;;;;;;;;4446922;32;20243;-56
2022/02/24 03:08:22;;;;;;;10.50;5.73;;;;;;;;;;4446684;32;20279;-56
2022/02/24 03:10:48;;;;;;;10.87;4.57;;;;;;;;;;4432807;32;20557;-56
2022/02/24 03:13:14;;;;;;;10.10;4.90;;;;;;;;;;4445771;32;38639;-56
2022/02/24 03:15:41;;;;;;;9.17;4.80;;;;;;;;;;4447080;32;20244;-56
2022/02/24 03:18:07;;;;;;;10.57;5.23;;;;;;;;;;4446781;32;20243;-57
2022/02/24 03:20:32;;;;;;;16.83;5.27;;;;;;;;;;4419875;32;20667;-56
2022/02/24 03:23:00;;;;;;;10.17;4.90;;;;;;;;;;4446806;32;20261;-56
2022/02/24 03:25:26;;;;;;;14.60;4.73;;;;;;;;;;4446760;32;20249;-55
2022/02/24 03:27:53;;;;;;;12.17;5.43;;;;;;;;;;4446341;32;20376;-56
2022/02/24 03:30:19;;;;;;;9.50;4.53;;;;;;;;;;4446819;32;20328;-57
2022/02/24 03:32:46;;;;;;;9.03;5.30;;;;;;;;;;4446566;32;20719;-56
2022/02/24 03:35:12;;;;;;;18.50;4.43;;;;;;;;;;4433858;32;20505;-56
2022/02/24 03:37:38;;;;;;;10.57;4.63;;;;;;;;;;4431043;32;20272;-56
2022/02/24 03:40:04;;;;;;;12.83;4.40;;;;;;;;;;4439178;32;20530;-56
2022/02/24 03:42:30;;;;;;;14.43;5.87;;;;;;;;;;4446932;32;20204;-56
2022/02/24 03:44:56;;;;;;;18.10;6.47;;;;;;;;;;4446846;32;20271;-56
2022/02/24 03:47:25;;;;;;;11.07;5.43;;;;;;;;;;4446618;32;20292;-56
2022/02/24 03:49:51;;;;;;;10.40;5.97;;;;;;;;;;4446453;32;20220;-56
2022/02/24 03:52:18;;;;;;;13.37;5.23;;;;;;;;;;4446652;32;20221;-56
2022/02/24 03:54:44;;;;;;;16.33;7.20;;;;;;;;;;4445183;32;20323;-56
2022/02/24 03:57:10;;;;;;;15.47;6.87;;;;;;;;;;4446822;32;20204;-56
2022/02/24 03:59:36;;;;;;;12.97;5.17;;;;;;;;;;4446589;32;20282;-56
2022/02/24 04:02:04;;;;;;;13.53;5.07;;;;;;;;;;4446887;32;20284;-55
2022/02/24 04:04:29;;;;;;;8.23;4.40;;;;;;;;;;4445188;32;20240;-56
2022/02/24 04:06:55;;;;;;;6.97;5.10;;;;;;;;;;4446572;32;20402;-56
2022/02/24 04:09:21;;;;;;;14.93;7.00;;;;;;;;;;4446269;32;20255;-56
2022/02/24 04:11:46;;;;;;;11.30;5.53;;;;;;;;;;4446325;32;20299;-56
2022/02/24 04:14:11;;;;;;;14.97;6.33;;;;;;;;;;4446568;32;20718;-55
2022/02/24 04:16:37;;;;;;;16.60;7.87;;;;;;;;;;4445364;32;20278;-55
2022/02/24 04:19:02;;;;;;;13.37;6.97;;;;;;;;;;4446755;32;20267;-56
2022/02/24 04:21:28;;;;;;;11.17;5.47;;;;;;;;;;4432497;32;20431;-56
2022/02/24 04:23:53;;;;;;;20.00;7.80;;;;;;;;;;4437068;32;20276;-55
2022/02/24 04:26:20;;;;;;;11.60;6.20;;;;;;;;;;4449344;32;20695;-56
2022/02/24 04:28:45;;;;;;;26.47;6.40;;;;;;;;;;4449481;32;20330;-56
2022/02/24 04:31:11;;;;;;;18.13;8.33;;;;;;;;;;4449430;32;20581;-55
2022/02/24 04:33:36;;;;;;;27.67;11.77;;;;;;;;;;4447322;32;20288;-55
2022/02/24 04:36:02;;;;;;;16.90;10.30;;;;;;;;;;4448978;32;20311;-56
2022/02/24 04:38:27;;;;;;;24.23;9.67;;;;;;;;;;4448792;32;20236;-56
2022/02/24 04:40:53;;;;;;;25.73;11.70;;;;;;;;;;4447995;32;20252;-55
2022/02/24 04:43:18;;;;;;;18.13;6.87;;;;;;;;;;4447850;32;20669;-55
2022/02/24 04:45:44;;;;;;;20.67;10.43;;;;;;;;;;4448917;32;20246;-55
2022/02/24 04:48:11;;;;;;;19.97;9.00;;;;;;;;;;4447395;32;20249;-56
2022/02/24 04:50:37;;;;;;;21.03;9.47;;;;;;;;;;4448780;32;20289;-55
2022/02/24 04:53:03;;;;;;;22.20;9.47;;;;;;;;;;4448690;32;20362;-55
2022/02/24 04:55:28;;;;;;;24.50;12.13;;;;;;;;;;4448665;32;20295;-55
2022/02/24 04:57:54;;;;;;;20.00;10.63;;;;;;;;;;4448666;32;20243;-55
2022/02/24 05:00:19;;;;;;;23.60;10.77;;;;;;;;;;4447690;32;20315;-56
2022/02/24 05:02:44;;;;;;;30.50;14.80;;;;;;;;;;4448598;32;20229;-55
2022/02/24 05:05:10;;;;;;;30.87;12.27;;;;;;;;;;4434778;32;20307;-55
2022/02/24 05:07:36;;;;;;;39.67;18.07;;;;;;;;;;4448403;32;20287;-55
2022/02/24 05:10:03;;;;;;;24.23;11.70;;;;;;;;;;4449010;32;20323;-55
2022/02/24 05:12:29;;;;;;;36.00;14.60;;;;;;;;;;4447225;32;20230;-55
2022/02/24 05:14:54;;;;;;;25.47;14.10;;;;;;;;;;4448709;32;20645;-55
2022/02/24 05:17:19;;;;;;;46.40;21.00;;;;;;;;;;4448702;32;20310;-55
2022/02/24 05:19:45;;;;;;;25.97;13.67;;;;;;;;;;4447800;32;20313;-55
2022/02/24 05:22:10;;;;;;;31.07;15.37;;;;;;;;;;4448418;32;20655;-55
2022/02/24 05:24:36;;;;;;;26.13;13.00;;;;;;;;;;4448461;32;20572;-55
2022/02/24 05:27:01;;;;;;;26.30;12.97;;;;;;;;;;4447085;32;20279;-55
2022/02/24 05:29:27;;;;;;;32.90;14.20;;;;;;;;;;4447683;32;20417;-56
2022/02/24 05:31:52;;;;;;;23.37;13.53;;;;;;;;;;4447852;32;20617;-55
2022/02/24 05:34:18;;;;;;;38.87;14.27;;;;;;;;;;4446361;32;20321;-56
2022/02/24 05:36:43;;;;;;;28.00;14.87;;;;;;;;;;4433816;32;20212;-55
2022/02/24 05:39:10;;;;;;;21.60;13.77;;;;;;;;;;4437116;32;20279;-54
2022/02/24 05:41:36;;;;;;;41.60;19.07;;;;;;;;;;4446451;32;20361;-56
2022/02/24 05:44:02;;;;;;;45.00;17.13;;;;;;;;;;4448350;32;20855;-56
2022/02/24 05:46:27;;;;;;;33.93;17.17;;;;;;;;;;4448005;32;20640;-55
2022/02/24 05:48:53;;;;;;;42.13;22.43;;;;;;;;;;4448073;32;20295;-56
2022/02/24 05:51:18;;;;;;;42.70;23.90;;;;;;;;;;4448004;32;20246;-56
2022/02/24 05:53:44;;;;;;;47.27;25.07;;;;;;;;;;4447022;32;20322;-55
2022/02/24 05:56:09;;;;;;;36.40;20.57;;;;;;;;;;4448074;32;20334;-57
2022/02/24 05:58:35;;;;;;;44.17;20.30;;;;;;;;;;4447237;32;20616;-56
2022/02/24 06:01:00;;;;;;;22.27;12.60;;;;;;;;;;4447662;32;20264;-56
2022/02/24 06:03:26;;;;;;;24.07;12.03;;;;;;;;;;4447356;32;20250;-56
2022/02/24 06:05:53;;;;;;;29.43;12.70;;;;;;;;;;4448170;32;20678;-56
2022/02/24 06:08:19;;;;;;;20.70;10.87;;;;;;;;;;4447507;32;20609;-55
2022/02/24 06:10:45;;;;;;;21.97;10.37;;;;;;;;;;4447885;32;20267;-55
2022/02/24 06:13:10;;;;;;;38.43;10.47;;;;;;;;;;4446672;32;20277;-55
2022/02/24 06:15:36;;;;;;;20.63;9.97;;;;;;;;;;4447633;32;20252;-55
2022/02/24 06:18:08;;;;;;;22.10;11.30;;;;;;;;;;4446809;32;20363;-54
2022/02/24 06:20:34;;;;;;;27.23;11.80;;;;;;;;;;4447187;32;20342;-55
2022/02/24 06:22:59;;;;;;;23.60;8.50;;;;;;;;;;4445818;32;20220;-55
2022/02/24 06:25:25;;;;;;;18.43;9.27;;;;;;;;;;4447178;32;20314;-55
2022/02/24 06:27:50;;;;;;;18.00;7.63;;;;;;;;;;4457596;32;20219;-54
2022/02/24 06:30:16;;;;;;;22.97;12.13;;;;;;;;;;4462856;32;20220;-55
2022/02/24 06:32:41;;;;;;;13.20;6.67;;;;;;;;;;4461981;32;20295;-55
2022/02/24 06:35:08;;;;;;;15.73;7.03;;;;;;;;;;4446892;32;20248;-55
2022/02/24 06:37:34;;;;;;;14.03;7.53;;;;;;;;;;4431578;32;20193;-54
2022/02/24 06:40:00;;;;;;;16.70;8.27;;;;;;;;;;4440413;32;20228;-55
2022/02/24 06:42:26;;;;;;;10.60;5.93;;;;;;;;;;4446643;32;20253;-56
2022/02/24 06:44:51;;;;;;;10.87;6.13;;;;;;;;;;4446694;32;20722;-55
2022/02/24 06:47:17;;;;;;;9.53;4.47;;;;;;;;;;4445784;32;20660;-55
2022/02/24 06:49:43;;;;;;;7.53;3.27;;;;;;;;;;4444077;32;20256;-55
2022/02/24 06:52:09;;;;;;;13.57;3.87;;;;;;;;;;4445328;32;20228;-56
2022/02/24 06:54:34;;;;;;;6.47;4.00;;;;;;;;;;4444796;32;20351;-56
2022/02/24 06:57:01;;;;;;;9.27;4.43;;;;;;;;;;4446285;32;20276;-54
2022/02/24 06:59:28;;;;;;;7.33;4.73;;;;;;;;;;4446845;32;20267;-55
2022/02/24 07:01:53;;;;;;;8.87;4.53;;;;;;;;;;4446502;32;20255;-56
2022/02/24 07:04:18;;;;;;;10.97;5.53;;;;;;;;;;4444761;32;20651;-53
2022/02/24 07:06:47;;;;;;;8.10;4.13;;;;;;;;;;4445756;32;20566;-54
2022/02/24 07:09:13;;;;;;;7.10;3.30;;;;;;;;;;4446445;32;20271;-55
2022/02/24 07:11:38;;;;;;;7.53;4.00;;;;;;;;;;4446465;32;20266;-57
2022/02/24 07:14:04;;;;;;;5.17;2.97;;;;;;;;;;4446427;32;20341;-54
2022/02/24 07:16:32;;;;;;;6.73;3.20;;;;;;;;;;4446671;32;20212;-55
2022/02/24 07:18:57;;;;;;;13.43;4.27;;;;;;;;;;4446542;32;20201;-56
2022/02/24 07:21:23;;;;;;;8.00;3.33;;;;;;;;;;4431804;32;20617;-55
2022/02/24 07:23:48;;;;;;;7.43;3.30;;;;;;;;;;4448005;32;20361;-55
2022/02/24 07:26:14;;;;;;;4.63;3.13;;;;;;;;;;4461780;32;20263;-55
2022/02/24 07:28:39;;;;;;;4.67;3.10;;;;;;;;;;4462184;32;20267;-55
2022/02/24 07:31:05;;;;;;;7.30;3.83;;;;;;;;;;4462408;32;20298;-54
2022/02/24 07:33:30;;;;;;;16.57;4.60;;;;;;;;;;4459478;32;20264;-55
2022/02/24 07:35:56;;;;;;;8.63;3.80;;;;;;;;;;4437709;32;20217;-55
2022/02/24 07:38:21;;;;;;;6.90;4.50;;;;;;;;;;4431151;32;20280;-55
2022/02/24 07:40:47;;;;;;;2.77;2.50;;;;;;;;;;4444946;32;20221;-55
2022/02/24 07:43:12;;;;;;;6.43;3.43;;;;;;;;;;4446262;32;20303;-55
2022/02/24 07:45:38;;;;;;;17.10;3.50;;;;;;;;;;4446294;32;20560;-56
2022/02/24 07:48:04;;;;;;;3.97;2.63;;;;;;;;;;4446117;32;20324;-56
2022/02/24 07:50:29;;;;;;;3.30;2.27;;;;;;;;;;4446218;32;20254;-55
2022/02/24 07:52:55;;;;;;;8.23;3.40;;;;;;;;;;4446184;32;20491;-55
2022/02/24 07:55:20;;;;;;;6.00;3.03;;;;;;;;;;4447666;32;20666;-56
2022/02/24 07:57:46;;;;;;;5.73;3.07;;;;;;;;;;4449198;32;20285;-55
2022/02/24 08:00:14;;;;;;;4.43;3.10;;;;;;;;;;4448819;32;20331;-55
2022/02/24 08:02:41;;;;;;;4.43;3.00;;;;;;;;;;4448450;32;20196;-56
2022/02/24 08:05:07;;;;;;;3.77;2.57;;;;;;;;;;4448609;32;20279;-56
2022/02/24 08:07:33;;;;;;;7.37;2.80;;;;;;;;;;4448850;32;20287;-57
2022/02/24 08:09:58;;;;;;;10.63;3.87;;;;;;;;;;4447903;32;20296;-56
2022/02/24 08:12:39;;;;;;;10.03;4.80;;;;;;;;;;4447739;32;20307;-55
2022/02/24 08:15:08;;;;;;;8.37;3.80;;;;;;;;;;4449003;32;20311;-55
2022/02/24 08:17:33;;;;;;;7.93;4.97;;;;;;;;;;4448954;32;20247;-55
2022/02/24 08:19:59;;;;;;;5.40;3.23;;;;;;;;;;4448822;32;20303;-55
2022/02/24 08:22:25;;;;;;;5.43;3.10;;;;;;;;;;4448765;32;20571;-56
2022/02/24 08:24:51;;;;;;;7.43;4.07;;;;;;;;;;4448504;32;20249;-58
2022/02/24 08:27:16;;;;;;;9.97;5.37;;;;;;;;;;4447397;32;20222;-56
2022/02/24 08:29:42;;;;;;;16.70;4.57;;;;;;;;;;4448542;32;20262;-55
2022/02/24 08:32:07;;;;;;;6.67;3.57;;;;;;;;;;4448247;32;20192;-55
2022/02/24 08:34:33;;;;;;;11.00;6.27;;;;;;;;;;4448268;32;20374;-56
2022/02/24 08:36:58;;;;;;;14.73;7.33;;;;;;;;;;4433007;32;20326;-56
2022/02/24 08:39:24;;;;;;;6.93;4.37;;;;;;;;;;4436529;32;20287;-55
2022/02/24 08:41:50;;;;;;;8.53;4.30;;;;;;;;;;4448504;32;20188;-55
2022/02/24 08:44:16;;;;;;;4.53;2.93;;;;;;;;;;4448042;32;20298;-55
2022/02/24 08:46:42;;;;;;;9.83;3.90;;;;;;;;;;4447262;32;20240;-55
2022/02/24 08:49:07;;;;;;;17.63;6.47;;;;;;;;;;4448018;32;20235;-57
2022/02/24 08:51:33;;;;;;;14.33;7.03;;;;;;;;;;4446961;32;20251;-55
2022/02/24 08:53:59;;;;;;;3.73;2.37;;;;;;;;;;4447884;32;20573;-56
2022/02/24 08:56:24;;;;;;;7.37;5.33;;;;;;;;;;4448037;32;20221;-56
2022/02/24 08:58:50;;;;;;;6.87;3.37;;;;;;;;;;4447926;32;20295;-55
2022/02/24 09:01:15;;;;;;;9.87;4.77;;;;;;;;;;4447932;32;20311;-57
2022/02/24 09:03:41;;;;;;;7.80;4.70;;;;;;;;;;4447793;32;20397;-57
2022/02/24 09:06:06;;;;;;;12.17;5.10;;;;;;;;;;4447228;32;20760;-56
2022/02/24 09:08:32;;;;;;;7.70;3.40;;;;;;;;;;4447670;32;20421;-54
2022/02/24 09:10:57;;;;;;;6.57;3.30;;;;;;;;;;4447247;32;20696;-57
2022/02/24 09:13:23;;;;;;;8.87;4.40;;;;;;;;;;4448069;32;20188;-55
2022/02/24 09:15:48;;;;;;;4.37;2.60;;;;;;;;;;4448211;32;20324;-56
2022/02/24 09:18:14;;;;;;;4.73;2.70;;;;;;;;;;4446977;32;20251;-56
2022/02/24 09:20:40;;;;;;;9.17;5.73;;;;;;;;;;4441543;32;20236;-57
2022/02/24 09:23:06;;;;;;;6.90;2.70;;;;;;;;;;4449633;32;20306;-55
2022/02/24 09:25:32;;;;;;;6.87;2.63;;;;;;;;;;4449465;32;20322;-57
2022/02/24 09:27:58;;;;;;;3.93;2.40;;;;;;;;;;4463237;32;20228;-57
2022/02/24 09:30:25;;;;;;;6.67;3.57;;;;;;;;;;4449254;32;20539;-56
2022/02/24 09:32:54;;;;;;;9.97;3.60;;;;;;;;;;4463297;32;20192;-55
2022/02/24 09:35:20;;;;;;;6.37;2.90;;;;;;;;;;4444034;32;20347;-55
2022/02/24 09:37:46;;;;;;;8.43;3.30;;;;;;;;;;4432150;32;20193;-56
2022/02/24 09:40:11;;;;;;;4.63;2.80;;;;;;;;;;4442034;32;20765;-55
2022/02/24 09:42:37;;;;;;;6.00;3.03;;;;;;;;;;4446529;32;20685;-56
2022/02/24 09:45:04;;;;;;;5.63;3.20;;;;;;;;;;4447456;32;20236;-57
2022/02/24 09:47:31;;;;;;;4.30;2.10;;;;;;;;;;4445810;32;20548;-56
2022/02/24 09:50:01;;;;;;;18.77;9.00;;;;;;;;;;4447066;32;20656;-56
2022/02/24 09:52:26;;;;;;;8.97;2.97;;;;;;;;;;4447449;32;20197;-56
2022/02/24 09:54:52;;;;;;;6.90;4.30;;;;;;;;;;4446390;32;20358;-57
2022/02/24 09:57:17;;;;;;;6.27;3.97;;;;;;;;;;4445358;32;20201;-56
2022/02/24 09:59:43;;;;;;;7.07;4.10;;;;;;;;;;4435330;32;20338;-56
2022/02/24 10:02:12;;;;;;;5.40;2.57;;;;;;;;;;4436188;32;20494;-57
2022/02/24 10:04:37;;;;;;;6.40;3.70;;;;;;;;;;4438479;32;20339;-57
2022/02/24 10:07:03;;;;;;;5.23;3.20;;;;;;;;;;4445959;32;20227;-56
2022/02/24 10:09:32;;;;;;;10.73;2.70;;;;;;;;;;4446109;32;20205;-57
2022/02/24 10:12:09;;;;;;;4.53;2.43;;;;;;;;;;4445207;32;20239;-57
2022/02/24 10:14:35;;;;;;;5.43;2.17;;;;;;;;;;4440395;32;20229;-56
2022/02/24 10:17:04;;;;;;;6.70;3.13;;;;;;;;;;4435054;32;20279;-56
2022/02/24 10:19:39;;;;;;;14.07;8.13;;;;;;;;;;4442837;32;20200;-56
2022/02/24 10:22:19;;;;;;;12.87;7.83;;;;;;;;;;4422051;32;20252;-57
2022/02/24 10:24:57;;;;;;;4.30;2.23;;;;;;;;;;4444005;32;20637;-56
2022/02/24 10:27:31;;;;;;;2.47;1.90;;;;;;;;;;4428166;32;20225;-56
2022/02/24 10:30:19;;;;;;;6.47;3.90;;;;;;;;;;4437354;32;20276;-59
2022/02/24 10:32:45;;;;;;;8.60;3.50;;;;;;;;;;4433323;32;20283;-55
2022/02/24 10:35:34;;;;;;;7.93;3.80;;;;;;;;;;4430225;32;20600;-56
2022/02/24 10:38:10;;;;;;;8.43;3.63;;;;;;;;;;4437389;32;20258;-55
2022/02/24 10:40:45;;;;;;;12.77;5.03;;;;;;;;;;4442235;32;20247;-55
2022/02/24 10:43:15;;;;;;;9.63;6.37;;;;;;;;;;4444689;32;20271;-55
2022/02/24 10:45:44;;;;;;;7.47;3.53;;;;;;;;;;4445273;32;20648;-56
2022/02/24 10:48:09;;;;;;;4.73;3.20;;;;;;;;;;4444427;32;20201;-55
2022/02/24 10:50:57;;;;;;;5.03;2.10;;;;;;;;;;4444422;32;20238;-56
2022/02/24 10:53:26;;;;;;;5.53;3.27;;;;;;;;;;4441691;32;20263;-55
2022/02/24 10:56:05;;;;;;;6.73;3.07;;;;;;;;;;4437357;32;20649;-56
2022/02/24 10:58:36;;;;;;;13.93;4.10;;;;;;;;;;4432848;32;20629;-55
2022/02/24 11:01:11;;;;;;;7.83;4.53;;;;;;;;;;4437947;32;20235;-56
2022/02/24 11:03:39;;;;;;;8.97;5.33;;;;;;;;;;4445766;32;20232;-55
2022/02/24 11:06:07;;;;;;;9.83;3.97;;;;;;;;;;4442769;32;20255;-56
2022/02/24 11:08:33;;;;;;;8.50;4.23;;;;;;;;;;4446916;32;20315;-55
2022/02/24 11:11:00;;;;;;;12.53;4.97;;;;;;;;;;4444871;32;20208;-55
2022/02/24 11:13:28;;;;;;;4.20;2.30;;;;;;;;;;4438408;32;20209;-54
2022/02/24 11:15:55;;;;;;;8.23;4.00;;;;;;;;;;4437731;32;20647;-55
2022/02/24 11:18:21;;;;;;;13.77;4.80;;;;;;;;;;4434484;32;20265;-55
2022/02/24 11:20:47;;;;;;;12.63;4.10;;;;;;;;;;4445724;32;20228;-55
2022/02/24 11:23:14;;;;;;;13.60;6.27;;;;;;;;;;4430361;32;20448;-57
2022/02/24 11:26:06;;;;;;;8.00;4.63;;;;;;;;;;4443744;32;20235;-55
2022/02/24 11:29:10;;;;;;;9.50;4.57;;;;;;;;;;4443505;32;20605;-55
2022/02/24 11:31:43;;;;;;;13.30;2.13;;;;;;;;;;4434824;32;20285;-56
2022/02/24 11:34:09;;;;;;;9.63;4.27;;;;;;;;;;4441212;32;20326;-56
2022/02/24 11:36:40;;;;;;;14.40;6.37;;;;;;;;;;4436674;32;20418;-56
2022/02/24 11:39:17;;;;;;;12.23;5.07;;;;;;;;;;4443707;32;20225;-56
2022/02/24 11:41:45;;;;;;;4.93;3.73;;;;;;;;;;4447169;32;20250;-55
2022/02/24 11:44:32;;;;;;;8.63;3.73;;;;;;;;;;4438738;32;20251;-56
2022/02/24 11:47:00;;;;;;;12.30;4.30;;;;;;;;;;4436546;32;20644;-56
2022/02/24 11:49:53;;;;;;;9.17;4.43;;;;;;;;;;4447213;32;20223;-56
2022/02/24 11:52:27;;;;;;;19.33;6.23;;;;;;;;;;4440056;32;20992;-55
2022/02/24 11:54:54;;;;;;;5.47;3.17;;;;;;;;;;4444315;32;20275;-55
2022/02/24 11:57:28;;;;;;;10.27;3.80;;;;;;;;;;4449552;32;20193;-56
2022/02/24 11:59:55;;;;;;;4.83;2.53;;;;;;;;;;4422241;32;20274;-57
2022/02/24 12:02:38;;;;;;;4.07;2.27;;;;;;;;;;4449609;32;20193;-56
2022/02/24 12:05:04;;;;;;;12.30;6.27;;;;;;;;;;4443063;32;20297;-57
2022/02/24 12:07:29;;;;;;;8.33;4.57;;;;;;;;;;4439787;32;20697;-57
2022/02/24 12:10:11;;;;;;;17.77;4.50;;;;;;;;;;4427490;32;20304;-57
2022/02/24 12:12:37;;;;;;;12.73;4.03;;;;;;;;;;4435397;32;20595;-56
2022/02/24 12:15:17;;;;;;;9.67;4.80;;;;;;;;;;4447554;32;20236;-57
2022/02/24 12:17:48;;;;;;;17.70;8.13;;;;;;;;;;4432964;32;20313;-58
2022/02/24 12:20:19;;;;;;;11.63;5.90;;;;;;;;;;4447658;32;20740;-58
2022/02/24 12:22:46;;;;;;;5.87;3.37;;;;;;;;;;4449535;32;20267;-56
2022/02/24 12:25:24;;;;;;;10.90;4.50;;;;;;;;;;4447629;32;20716;-57
2022/02/24 12:28:04;;;;;;;8.23;4.93;;;;;;;;;;4440931;32;20324;-56
2022/02/24 12:30:53;;;;;;;12.83;4.90;;;;;;;;;;4439845;32;20313;-57
2022/02/24 12:33:19;;;;;;;6.70;3.10;;;;;;;;;;4441394;32;20204;-57
2022/02/24 12:35:50;;;;;;;4.00;2.67;;;;;;;;;;4449406;32;20252;-57
2022/02/24 12:38:20;;;;;;;3.40;1.93;;;;;;;;;;4447576;32;20272;-56
2022/02/24 12:40:48;;;;;;;10.47;5.57;;;;;;;;;;4438790;32;20340;-56
2022/02/24 12:43:20;;;;;;;19.93;6.17;;;;;;;;;;4439852;32;20295;-55
2022/02/24 12:45:48;;;;;;;11.70;7.13;;;;;;;;;;4438793;32;20398;-55
2022/02/24 12:48:16;;;;;;;9.90;5.87;;;;;;;;;;4447553;32;20221;-55
2022/02/24 12:50:51;;;;;;;11.53;3.80;;;;;;;;;;4447449;32;20299;-55
2022/02/24 12:53:22;;;;;;;6.53;3.37;;;;;;;;;;4448497;32;20232;-56
2022/02/24 12:55:51;;;;;;;4.37;1.80;;;;;;;;;;4448292;32;20243;-55
2022/02/24 12:58:17;;;;;;;5.97;2.43;;;;;;;;;;4435581;32;20205;-56
2022/02/24 13:00:49;;;;;;;15.00;5.70;;;;;;;;;;4449762;32;20235;-56
2022/02/24 13:03:16;;;;;;;47.13;29.10;;;;;;;;;;4433164;32;20290;-56
2022/02/24 13:05:55;;;;;;;7.20;5.00;;;;;;;;;;4447683;32;20702;-56
2022/02/24 13:11:07;;;;;;;7.30;4.47;;;;;;;;;;4436983;32;21236;-56
2022/02/24 13:13:33;;;;;;;7.80;3.00;;;;;;;;;;4441393;32;20746;-55
2022/02/24 13:16:08;;;;;;;28.10;14.27;;;;;;;;;;4435796;32;20216;-55
2022/02/24 13:18:39;;;;;;;6.83;4.03;;;;;;;;;;4419116;32;20298;-55
2022/02/24 13:21:06;;;;;;;4.77;3.20;;;;;;;;;;4437652;32;20691;-55
2022/02/24 13:23:32;;;;;;;5.83;1.93;;;;;;;;;;4432922;32;20232;-56
2022/02/24 13:25:59;;;;;;;6.37;4.00;;;;;;;;;;4433372;32;20729;-55
2022/02/24 13:28:31;;;;;;;7.57;5.17;;;;;;;;;;4436583;32;20273;-55
2022/02/24 13:31:07;;;;;;;9.43;5.20;;;;;;;;;;4448456;32;20641;-56
2022/02/24 13:33:39;;;;;;;10.47;5.93;;;;;;;;;;4448421;32;20252;-55
2022/02/24 13:36:09;;;;;;;10.37;6.03;;;;;;;;;;4441495;32;20680;-56
2022/02/24 13:38:38;;;;;;;11.13;7.27;;;;;;;;;;4432929;32;20198;-56
2022/02/24 13:41:05;;;;;;;10.83;6.10;;;;;;;;;;4432827;32;20212;-55
2022/02/24 13:43:34;;;;;;;12.23;6.47;;;;;;;;;;4432961;32;20617;-55
2022/02/24 13:46:01;;;;;;;15.13;7.13;;;;;;;;;;4439187;32;20802;-56
2022/02/24 13:48:27;;;;;;;8.40;5.67;;;;;;;;;;4446680;32;20768;-56
2022/02/24 13:50:53;;;;;;;8.83;5.63;;;;;;;;;;4447201;32;20307;-56
2022/02/24 13:53:27;;;;;;;10.40;5.87;;;;;;;;;;4437760;32;20253;-55
2022/02/24 13:55:58;;;;;;;12.53;5.77;;;;;;;;;;4431361;32;20312;-56
2022/02/24 13:58:33;;;;;;;15.93;6.33;;;;;;;;;;4432260;32;20606;-56
2022/02/24 14:01:06;;;;;;;6.17;4.03;;;;;;;;;;4432485;32;20212;-55
2022/02/24 14:03:34;;;;;;;22.63;7.53;;;;;;;;;;4432888;32;20196;-55
2022/02/24 14:06:02;;;;;;;12.73;5.63;;;;;;;;;;4432449;32;20672;-57
2022/02/24 14:08:28;;;;;;;14.73;8.00;;;;;;;;;;4432645;32;20350;-56
2022/02/24 14:11:11;;;;;;;8.40;5.30;;;;;;;;;;4443362;32;20221;-56
2022/02/24 14:13:37;;;;;;;16.40;7.33;;;;;;;;;;4448510;32;20261;-56
2022/02/24 14:16:02;;;;;;;11.43;4.17;;;;;;;;;;4434580;32;20427;-57
2022/02/24 14:18:29;;;;;;;13.30;8.40;;;;;;;;;;4448274;32;20633;-55
2022/02/24 14:20:54;;;;;;;8.10;4.63;;;;;;;;;;4447940;32;20224;-56
2022/02/24 14:23:19;;;;;;;10.97;4.63;;;;;;;;;;4448055;32;20222;-57
2022/02/24 14:25:45;;;;;;;11.57;5.87;;;;;;;;;;4447775;32;20240;-56
2022/02/24 14:28:10;;;;;;;13.83;5.33;;;;;;;;;;4447356;32;20246;-56
2022/02/24 14:30:36;;;;;;;13.63;7.67;;;;;;;;;;4447891;32;20228;-56
2022/02/24 14:33:02;;;;;;;29.63;15.83;;;;;;;;;;4447401;32;20340;-57
2022/02/24 14:35:27;;;;;;;6.57;3.80;;;;;;;;;;4447612;32;20254;-56
2022/02/24 14:37:53;;;;;;;14.83;6.00;;;;;;;;;;4447656;32;20674;-57